sensor_id;sensor_type;location;lat;lon;timestamp;temperature;humidity
16532;DHT22;66872;63.142;14.482;2024-01-10T00:01:31;15.80;28.90
16532;DHT22;66872;63.142;14.482;2024-01-10T00:03:57;15.80;28.90
16532;DHT22;66872;63.142;14.482;2024-01-10T00:06:23;15.80;28.90
16532;DHT22;66872;63.142;14.482;2024-01-10T00:08:49;15.80;28.90
16532;DHT22;66872;63.142;14.482;2024-01-10T00:11:15;15.80;28.80
16532;DHT22;66872;63.142;14.482;2024-01-10T00:13:41;15.80;28.80
16532;DHT22;66872;63.142;14.482;2024-01-10T00:16:07;15.80;28.90
16532;DHT22;66872;63.142;14.482;2024-01-10T00:18:33;15.80;28.90
16532;DHT22;66872;63.142;14.482;2024-01-10T00:20:59;15.80;28.80
16532;DHT22;66872;63.142;14.482;2024-01-10T00:23:25;15.80;28.80
16532;DHT22;66872;63.142;14.482;2024-01-10T00:25:50;15.80;28.80
16532;DHT22;66872;63.142;14.482;2024-01-10T00:28:16;15.80;28.80
16532;DHT22;66872;63.142;14.482;2024-01-10T00:30:46;15.80;28.80
16532;DHT22;66872;63.142;14.482;2024-01-10T00:33:15;15.80;28.80
16532;DHT22;66872;63.142;14.482;2024-01-10T00:35:41;15.80;28.80
16532;DHT22;66872;63.142;14.482;2024-01-10T00:38:06;15.80;28.80
16532;DHT22;66872;63.142;14.482;2024-01-10T00:40:32;15.80;28.80
16532;DHT22;66872;63.142;14.482;2024-01-10T00:42:58;15.80;28.80
16532;DHT22;66872;63.142;14.482;2024-01-10T00:45:24;15.80;28.80
16532;DHT22;66872;63.142;14.482;2024-01-10T00:47:50;15.80;28.80
16532;DHT22;66872;63.142;14.482;2024-01-10T00:50:16;15.80;28.80
16532;DHT22;66872;63.142;14.482;2024-01-10T00:52:45;15.80;28.80
16532;DHT22;66872;63.142;14.482;2024-01-10T00:55:11;15.80;28.80
16532;DHT22;66872;63.142;14.482;2024-01-10T00:57:36;15.80;28.80
16532;DHT22;66872;63.142;14.482;2024-01-10T01:00:05;15.80;28.80
16532;DHT22;66872;63.142;14.482;2024-01-10T01:02:31;15.80;28.80
16532;DHT22;66872;63.142;14.482;2024-01-10T01:04:57;15.80;28.80
16532;DHT22;66872;63.142;14.482;2024-01-10T01:07:22;15.80;28.80
16532;DHT22;66872;63.142;14.482;2024-01-10T01:09:48;15.80;28.80
16532;DHT22;66872;63.142;14.482;2024-01-10T01:12:14;15.80;28.80
16532;DHT22;66872;63.142;14.482;2024-01-10T01:14:39;15.80;28.80
16532;DHT22;66872;63.142;14.482;2024-01-10T01:17:05;15.80;28.80
16532;DHT22;66872;63.142;14.482;2024-01-10T01:19:30;15.80;28.70
16532;DHT22;66872;63.142;14.482;2024-01-10T01:21:56;15.80;28.80
16532;DHT22;66872;63.142;14.482;2024-01-10T01:24:22;15.80;28.80
16532;DHT22;66872;63.142;14.482;2024-01-10T01:26:47;15.80;28.80
16532;DHT22;66872;63.142;14.482;2024-01-10T01:29:13;15.80;28.80
16532;DHT22;66872;63.142;14.482;2024-01-10T01:31:38;15.80;28.80
16532;DHT22;66872;63.142;14.482;2024-01-10T01:34:04;15.80;28.80
16532;DHT22;66872;63.142;14.482;2024-01-10T01:36:30;15.80;28.80
16532;DHT22;66872;63.142;14.482;2024-01-10T01:38:55;15.80;28.80
16532;DHT22;66872;63.142;14.482;2024-01-10T01:41:21;15.80;28.80
16532;DHT22;66872;63.142;14.482;2024-01-10T01:43:47;15.80;28.80
16532;DHT22;66872;63.142;14.482;2024-01-10T01:46:12;15.80;28.80
16532;DHT22;66872;63.142;14.482;2024-01-10T01:48:38;15.80;28.80
16532;DHT22;66872;63.142;14.482;2024-01-10T01:51:07;15.80;28.80
16532;DHT22;66872;63.142;14.482;2024-01-10T01:53:35;15.80;28.80
16532;DHT22;66872;63.142;14.482;2024-01-10T01:56:06;15.80;28.80
16532;DHT22;66872;63.142;14.482;2024-01-10T01:58:32;15.80;28.80
16532;DHT22;66872;63.142;14.482;2024-01-10T02:00:58;15.80;28.80
16532;DHT22;66872;63.142;14.482;2024-01-10T02:03:25;15.80;28.80
16532;DHT22;66872;63.142;14.482;2024-01-10T02:05:52;15.80;28.80
16532;DHT22;66872;63.142;14.482;2024-01-10T02:08:18;15.80;28.80
16532;DHT22;66872;63.142;14.482;2024-01-10T02:10:44;15.80;28.80
16532;DHT22;66872;63.142;14.482;2024-01-10T02:13:10;15.80;28.80
16532;DHT22;66872;63.142;14.482;2024-01-10T02:15:37;15.80;29.30
16532;DHT22;66872;63.142;14.482;2024-01-10T02:18:03;15.80;28.80
16532;DHT22;66872;63.142;14.482;2024-01-10T02:20:31;15.80;28.80
16532;DHT22;66872;63.142;14.482;2024-01-10T02:22:57;15.80;28.80
16532;DHT22;66872;63.142;14.482;2024-01-10T02:25:22;15.80;28.80
16532;DHT22;66872;63.142;14.482;2024-01-10T02:27:48;15.80;28.80
16532;DHT22;66872;63.142;14.482;2024-01-10T02:30:14;15.80;28.80
16532;DHT22;66872;63.142;14.482;2024-01-10T02:32:40;15.80;28.80
16532;DHT22;66872;63.142;14.482;2024-01-10T02:35:06;15.80;28.80
16532;DHT22;66872;63.142;14.482;2024-01-10T02:37:32;15.80;28.80
16532;DHT22;66872;63.142;14.482;2024-01-10T02:39:58;15.80;28.80
16532;DHT22;66872;63.142;14.482;2024-01-10T02:42:23;15.80;28.80
16532;DHT22;66872;63.142;14.482;2024-01-10T02:44:49;15.80;28.80
16532;DHT22;66872;63.142;14.482;2024-01-10T02:47:15;15.80;28.80
16532;DHT22;66872;63.142;14.482;2024-01-10T02:49:40;15.80;28.80
16532;DHT22;66872;63.142;14.482;2024-01-10T02:52:06;15.80;28.70
16532;DHT22;66872;63.142;14.482;2024-01-10T02:54:32;15.80;28.70
16532;DHT22;66872;63.142;14.482;2024-01-10T02:56:57;15.80;28.80
16532;DHT22;66872;63.142;14.482;2024-01-10T02:59:23;15.80;28.80
16532;DHT22;66872;63.142;14.482;2024-01-10T03:01:49;15.80;28.80
16532;DHT22;66872;63.142;14.482;2024-01-10T03:04:14;15.80;28.80
16532;DHT22;66872;63.142;14.482;2024-01-10T03:06:40;15.80;28.80
16532;DHT22;66872;63.142;14.482;2024-01-10T03:09:06;15.80;28.80
16532;DHT22;66872;63.142;14.482;2024-01-10T03:11:31;15.80;28.80
16532;DHT22;66872;63.142;14.482;2024-01-10T03:14:17;15.80;28.80
16532;DHT22;66872;63.142;14.482;2024-01-10T03:16:43;15.80;28.70
16532;DHT22;66872;63.142;14.482;2024-01-10T03:19:08;15.80;28.80
16532;DHT22;66872;63.142;14.482;2024-01-10T03:21:34;15.80;28.80
16532;DHT22;66872;63.142;14.482;2024-01-10T03:24:01;15.80;28.80
16532;DHT22;66872;63.142;14.482;2024-01-10T03:26:27;15.80;28.70
16532;DHT22;66872;63.142;14.482;2024-01-10T03:28:53;15.80;28.80
16532;DHT22;66872;63.142;14.482;2024-01-10T03:31:19;15.80;28.70
16532;DHT22;66872;63.142;14.482;2024-01-10T03:33:45;15.80;28.70
16532;DHT22;66872;63.142;14.482;2024-01-10T03:36:14;15.80;28.70
16532;DHT22;66872;63.142;14.482;2024-01-10T03:38:40;15.80;28.70
16532;DHT22;66872;63.142;14.482;2024-01-10T03:41:05;15.80;29.20
16532;DHT22;66872;63.142;14.482;2024-01-10T03:43:31;15.80;29.20
16532;DHT22;66872;63.142;14.482;2024-01-10T03:45:58;15.80;28.70
16532;DHT22;66872;63.142;14.482;2024-01-10T03:48:23;15.80;28.70
16532;DHT22;66872;63.142;14.482;2024-01-10T03:50:49;15.80;28.70
16532;DHT22;66872;63.142;14.482;2024-01-10T03:53:15;15.80;28.70
16532;DHT22;66872;63.142;14.482;2024-01-10T03:55:40;15.80;28.70
16532;DHT22;66872;63.142;14.482;2024-01-10T03:58:06;15.80;28.70
16532;DHT22;66872;63.142;14.482;2024-01-10T04:00:32;15.80;28.70
16532;DHT22;66872;63.142;14.482;2024-01-10T04:02:58;15.80;28.70
16532;DHT22;66872;63.142;14.482;2024-01-10T04:05:23;15.80;28.70
16532;DHT22;66872;63.142;14.482;2024-01-10T04:07:51;15.80;28.70
16532;DHT22;66872;63.142;14.482;2024-01-10T04:10:17;15.80;28.70
16532;DHT22;66872;63.142;14.482;2024-01-10T04:12:43;15.80;28.70
16532;DHT22;66872;63.142;14.482;2024-01-10T04:15:09;15.80;28.70
16532;DHT22;66872;63.142;14.482;2024-01-10T04:17:35;15.90;28.80
16532;DHT22;66872;63.142;14.482;2024-01-10T04:20:01;15.80;28.70
16532;DHT22;66872;63.142;14.482;2024-01-10T04:22:27;15.90;28.80
16532;DHT22;66872;63.142;14.482;2024-01-10T04:24:53;15.80;28.70
16532;DHT22;66872;63.142;14.482;2024-01-10T04:27:18;15.80;28.70
16532;DHT22;66872;63.142;14.482;2024-01-10T04:29:44;15.90;28.80
16532;DHT22;66872;63.142;14.482;2024-01-10T04:32:10;15.80;28.70
16532;DHT22;66872;63.142;14.482;2024-01-10T04:34:36;15.80;28.70
16532;DHT22;66872;63.142;14.482;2024-01-10T04:37:01;15.80;28.70
16532;DHT22;66872;63.142;14.482;2024-01-10T04:39:27;15.80;28.70
16532;DHT22;66872;63.142;14.482;2024-01-10T04:41:53;15.80;28.70
16532;DHT22;66872;63.142;14.482;2024-01-10T04:44:19;15.80;28.70
16532;DHT22;66872;63.142;14.482;2024-01-10T04:46:44;15.80;28.70
16532;DHT22;66872;63.142;14.482;2024-01-10T04:49:10;15.80;28.70
16532;DHT22;66872;63.142;14.482;2024-01-10T04:51:36;15.80;28.70
16532;DHT22;66872;63.142;14.482;2024-01-10T04:54:01;15.80;28.80
16532;DHT22;66872;63.142;14.482;2024-01-10T04:56:27;15.80;28.80
16532;DHT22;66872;63.142;14.482;2024-01-10T04:58:53;15.80;28.80
16532;DHT22;66872;63.142;14.482;2024-01-10T05:01:18;15.80;29.20
16532;DHT22;66872;63.142;14.482;2024-01-10T05:03:44;15.80;28.80
16532;DHT22;66872;63.142;14.482;2024-01-10T05:06:10;15.80;28.80
16532;DHT22;66872;63.142;14.482;2024-01-10T05:08:36;15.80;28.80
16532;DHT22;66872;63.142;14.482;2024-01-10T05:11:02;15.80;28.80
16532;DHT22;66872;63.142;14.482;2024-01-10T05:13:28;15.80;28.80
16532;DHT22;66872;63.142;14.482;2024-01-10T05:15:54;15.80;28.80
16532;DHT22;66872;63.142;14.482;2024-01-10T05:18:21;15.80;28.80
16532;DHT22;66872;63.142;14.482;2024-01-10T05:20:47;15.80;28.80
16532;DHT22;66872;63.142;14.482;2024-01-10T05:23:12;15.80;28.80
16532;DHT22;66872;63.142;14.482;2024-01-10T05:25:38;15.80;28.80
16532;DHT22;66872;63.142;14.482;2024-01-10T05:28:04;15.80;28.80
16532;DHT22;66872;63.142;14.482;2024-01-10T05:30:30;15.80;28.80
16532;DHT22;66872;63.142;14.482;2024-01-10T05:32:57;15.80;28.80
16532;DHT22;66872;63.142;14.482;2024-01-10T05:35:24;15.80;28.80
16532;DHT22;66872;63.142;14.482;2024-01-10T05:37:51;15.80;28.80
16532;DHT22;66872;63.142;14.482;2024-01-10T05:40:17;15.80;28.80
16532;DHT22;66872;63.142;14.482;2024-01-10T05:42:44;15.80;28.80
16532;DHT22;66872;63.142;14.482;2024-01-10T05:45:10;15.80;28.80
16532;DHT22;66872;63.142;14.482;2024-01-10T05:47:36;15.80;28.80
16532;DHT22;66872;63.142;14.482;2024-01-10T05:50:02;15.80;28.80
16532;DHT22;66872;63.142;14.482;2024-01-10T05:52:31;15.80;28.80
16532;DHT22;66872;63.142;14.482;2024-01-10T05:54:59;15.80;28.80
16532;DHT22;66872;63.142;14.482;2024-01-10T05:57:27;15.80;28.80
16532;DHT22;66872;63.142;14.482;2024-01-10T05:59:52;15.80;28.80
16532;DHT22;66872;63.142;14.482;2024-01-10T06:02:21;15.80;28.80
16532;DHT22;66872;63.142;14.482;2024-01-10T06:04:46;15.80;28.80
16532;DHT22;66872;63.142;14.482;2024-01-10T06:07:12;15.80;28.90
16532;DHT22;66872;63.142;14.482;2024-01-10T06:09:38;15.80;28.90
16532;DHT22;66872;63.142;14.482;2024-01-10T06:12:05;15.80;28.90
16532;DHT22;66872;63.142;14.482;2024-01-10T06:14:32;15.80;28.90
16532;DHT22;66872;63.142;14.482;2024-01-10T06:16:57;15.80;28.90
16532;DHT22;66872;63.142;14.482;2024-01-10T06:19:25;15.80;28.90
16532;DHT22;66872;63.142;14.482;2024-01-10T06:21:50;15.80;28.90
16532;DHT22;66872;63.142;14.482;2024-01-10T06:24:17;15.80;28.90
16532;DHT22;66872;63.142;14.482;2024-01-10T06:26:43;15.80;28.90
16532;DHT22;66872;63.142;14.482;2024-01-10T06:29:09;15.80;28.90
16532;DHT22;66872;63.142;14.482;2024-01-10T06:31:34;15.80;28.90
16532;DHT22;66872;63.142;14.482;2024-01-10T06:34:00;15.80;28.90
16532;DHT22;66872;63.142;14.482;2024-01-10T06:36:26;15.80;28.90
16532;DHT22;66872;63.142;14.482;2024-01-10T06:38:51;15.80;28.90
16532;DHT22;66872;63.142;14.482;2024-01-10T06:41:17;15.80;28.80
16532;DHT22;66872;63.142;14.482;2024-01-10T06:43:42;15.80;28.80
16532;DHT22;66872;63.142;14.482;2024-01-10T06:46:09;15.80;28.90
16532;DHT22;66872;63.142;14.482;2024-01-10T06:48:35;15.80;28.90
16532;DHT22;66872;63.142;14.482;2024-01-10T06:51:01;15.80;28.80
16532;DHT22;66872;63.142;14.482;2024-01-10T06:53:26;15.80;28.80
16532;DHT22;66872;63.142;14.482;2024-01-10T06:55:52;15.80;28.90
16532;DHT22;66872;63.142;14.482;2024-01-10T06:58:18;15.80;28.80
16532;DHT22;66872;63.142;14.482;2024-01-10T07:00:43;15.80;28.80
16532;DHT22;66872;63.142;14.482;2024-01-10T07:03:09;15.80;28.90
16532;DHT22;66872;63.142;14.482;2024-01-10T07:05:34;15.80;28.90
16532;DHT22;66872;63.142;14.482;2024-01-10T07:08:01;15.80;28.80
16532;DHT22;66872;63.142;14.482;2024-01-10T07:10:29;15.80;28.80
16532;DHT22;66872;63.142;14.482;2024-01-10T07:12:55;15.80;28.80
16532;DHT22;66872;63.142;14.482;2024-01-10T07:15:21;15.80;28.80
16532;DHT22;66872;63.142;14.482;2024-01-10T07:17:48;15.80;28.90
16532;DHT22;66872;63.142;14.482;2024-01-10T07:20:13;15.80;28.90
16532;DHT22;66872;63.142;14.482;2024-01-10T07:22:39;15.80;28.90
16532;DHT22;66872;63.142;14.482;2024-01-10T07:25:10;15.80;28.90
16532;DHT22;66872;63.142;14.482;2024-01-10T07:27:42;15.80;29.40
16532;DHT22;66872;63.142;14.482;2024-01-10T07:30:08;15.80;28.90
16532;DHT22;66872;63.142;14.482;2024-01-10T07:32:47;15.80;28.90
16532;DHT22;66872;63.142;14.482;2024-01-10T07:35:13;15.80;28.90
16532;DHT22;66872;63.142;14.482;2024-01-10T07:37:41;15.80;28.90
16532;DHT22;66872;63.142;14.482;2024-01-10T07:40:07;15.80;28.80
16532;DHT22;66872;63.142;14.482;2024-01-10T07:42:37;15.80;28.90
16532;DHT22;66872;63.142;14.482;2024-01-10T07:45:03;15.80;28.90
16532;DHT22;66872;63.142;14.482;2024-01-10T07:47:35;15.80;28.90
16532;DHT22;66872;63.142;14.482;2024-01-10T07:50:07;15.80;28.90
16532;DHT22;66872;63.142;14.482;2024-01-10T07:52:33;15.80;28.90
16532;DHT22;66872;63.142;14.482;2024-01-10T07:55:00;15.80;28.90
16532;DHT22;66872;63.142;14.482;2024-01-10T07:57:26;15.80;29.40
16532;DHT22;66872;63.142;14.482;2024-01-10T07:59:52;15.80;28.90
16532;DHT22;66872;63.142;14.482;2024-01-10T08:02:18;15.80;28.90
16532;DHT22;66872;63.142;14.482;2024-01-10T08:04:44;15.80;28.90
16532;DHT22;66872;63.142;14.482;2024-01-10T08:07:10;15.80;28.90
16532;DHT22;66872;63.142;14.482;2024-01-10T08:09:36;15.80;28.90
16532;DHT22;66872;63.142;14.482;2024-01-10T08:12:03;15.80;28.90
16532;DHT22;66872;63.142;14.482;2024-01-10T08:14:28;15.80;28.90
16532;DHT22;66872;63.142;14.482;2024-01-10T08:16:54;15.80;28.90
16532;DHT22;66872;63.142;14.482;2024-01-10T08:19:26;15.80;28.90
16532;DHT22;66872;63.142;14.482;2024-01-10T08:21:54;15.80;28.90
16532;DHT22;66872;63.142;14.482;2024-01-10T08:24:20;15.80;28.90
16532;DHT22;66872;63.142;14.482;2024-01-10T08:26:47;15.80;28.90
16532;DHT22;66872;63.142;14.482;2024-01-10T08:29:15;15.80;28.90
16532;DHT22;66872;63.142;14.482;2024-01-10T08:31:40;15.80;28.80
16532;DHT22;66872;63.142;14.482;2024-01-10T08:34:06;15.80;28.90
16532;DHT22;66872;63.142;14.482;2024-01-10T08:36:32;15.80;28.90
16532;DHT22;66872;63.142;14.482;2024-01-10T08:38:57;15.80;28.80
16532;DHT22;66872;63.142;14.482;2024-01-10T08:41:23;15.80;28.80
16532;DHT22;66872;63.142;14.482;2024-01-10T08:43:48;15.80;28.80
16532;DHT22;66872;63.142;14.482;2024-01-10T08:46:14;15.80;28.80
16532;DHT22;66872;63.142;14.482;2024-01-10T08:48:40;15.80;28.80
16532;DHT22;66872;63.142;14.482;2024-01-10T08:51:05;15.80;28.80
16532;DHT22;66872;63.142;14.482;2024-01-10T08:53:31;15.80;28.80
16532;DHT22;66872;63.142;14.482;2024-01-10T08:55:57;15.80;28.80
16532;DHT22;66872;63.142;14.482;2024-01-10T08:58:23;15.80;28.90
16532;DHT22;66872;63.142;14.482;2024-01-10T09:00:49;15.80;28.90
16532;DHT22;66872;63.142;14.482;2024-01-10T09:03:14;15.80;28.90
16532;DHT22;66872;63.142;14.482;2024-01-10T09:05:40;15.80;28.90
16532;DHT22;66872;63.142;14.482;2024-01-10T09:08:05;15.80;28.80
16532;DHT22;66872;63.142;14.482;2024-01-10T09:10:31;15.80;28.90
16532;DHT22;66872;63.142;14.482;2024-01-10T09:13:00;15.80;28.80
16532;DHT22;66872;63.142;14.482;2024-01-10T09:15:25;15.80;28.80
16532;DHT22;66872;63.142;14.482;2024-01-10T09:17:51;15.80;28.90
16532;DHT22;66872;63.142;14.482;2024-01-10T09:20:17;15.80;28.90
16532;DHT22;66872;63.142;14.482;2024-01-10T09:22:44;15.80;28.90
16532;DHT22;66872;63.142;14.482;2024-01-10T09:25:10;15.80;28.90
16532;DHT22;66872;63.142;14.482;2024-01-10T09:27:38;15.80;28.90
16532;DHT22;66872;63.142;14.482;2024-01-10T09:30:06;15.80;28.90
16532;DHT22;66872;63.142;14.482;2024-01-10T09:32:34;15.80;28.90
16532;DHT22;66872;63.142;14.482;2024-01-10T09:35:00;15.80;28.90
16532;DHT22;66872;63.142;14.482;2024-01-10T09:37:26;15.80;28.90
16532;DHT22;66872;63.142;14.482;2024-01-10T09:39:52;15.80;28.90
16532;DHT22;66872;63.142;14.482;2024-01-10T09:42:21;15.80;28.90
16532;DHT22;66872;63.142;14.482;2024-01-10T09:44:51;15.80;28.90
16532;DHT22;66872;63.142;14.482;2024-01-10T09:47:19;15.80;28.90
16532;DHT22;66872;63.142;14.482;2024-01-10T09:49:46;15.80;28.90
16532;DHT22;66872;63.142;14.482;2024-01-10T09:52:19;15.80;28.90
16532;DHT22;66872;63.142;14.482;2024-01-10T09:54:56;15.80;28.90
16532;DHT22;66872;63.142;14.482;2024-01-10T09:57:26;15.80;28.90
16532;DHT22;66872;63.142;14.482;2024-01-10T09:59:52;15.80;28.90
16532;DHT22;66872;63.142;14.482;2024-01-10T10:02:18;15.80;28.90
16532;DHT22;66872;63.142;14.482;2024-01-10T10:05:00;15.80;28.90
16532;DHT22;66872;63.142;14.482;2024-01-10T10:07:27;15.80;28.90
16532;DHT22;66872;63.142;14.482;2024-01-10T10:09:53;15.80;28.90
16532;DHT22;66872;63.142;14.482;2024-01-10T10:12:22;15.80;29.00
16532;DHT22;66872;63.142;14.482;2024-01-10T10:14:48;15.80;28.90
16532;DHT22;66872;63.142;14.482;2024-01-10T10:17:17;15.80;28.90
16532;DHT22;66872;63.142;14.482;2024-01-10T10:19:43;15.80;28.90
16532;DHT22;66872;63.142;14.482;2024-01-10T10:22:10;15.80;28.90
16532;DHT22;66872;63.142;14.482;2024-01-10T10:24:37;15.80;28.90
16532;DHT22;66872;63.142;14.482;2024-01-10T10:27:12;15.80;28.80
16532;DHT22;66872;63.142;14.482;2024-01-10T10:29:38;15.80;28.80
16532;DHT22;66872;63.142;14.482;2024-01-10T10:32:05;15.80;28.80
16532;DHT22;66872;63.142;14.482;2024-01-10T10:34:31;15.80;28.80
16532;DHT22;66872;63.142;14.482;2024-01-10T10:36:58;15.80;28.80
16532;DHT22;66872;63.142;14.482;2024-01-10T10:39:24;15.80;28.90
16532;DHT22;66872;63.142;14.482;2024-01-10T10:41:51;15.80;28.80
16532;DHT22;66872;63.142;14.482;2024-01-10T10:44:19;15.80;28.80
16532;DHT22;66872;63.142;14.482;2024-01-10T10:46:52;15.80;28.80
16532;DHT22;66872;63.142;14.482;2024-01-10T10:49:26;15.80;28.80
16532;DHT22;66872;63.142;14.482;2024-01-10T10:51:56;15.80;28.80
16532;DHT22;66872;63.142;14.482;2024-01-10T10:54:23;15.80;28.80
16532;DHT22;66872;63.142;14.482;2024-01-10T10:56:51;15.80;28.80
16532;DHT22;66872;63.142;14.482;2024-01-10T10:59:19;15.80;28.80
16532;DHT22;66872;63.142;14.482;2024-01-10T11:01:47;15.80;28.80
16532;DHT22;66872;63.142;14.482;2024-01-10T11:04:13;15.80;28.80
16532;DHT22;66872;63.142;14.482;2024-01-10T11:06:40;15.80;28.80
16532;DHT22;66872;63.142;14.482;2024-01-10T11:09:08;15.80;28.80
16532;DHT22;66872;63.142;14.482;2024-01-10T11:11:43;15.80;28.80
16532;DHT22;66872;63.142;14.482;2024-01-10T11:20:14;15.80;28.70
16532;DHT22;66872;63.142;14.482;2024-01-10T11:25:37;15.80;28.80
16532;DHT22;66872;63.142;14.482;2024-01-10T11:28:04;15.80;28.80
16532;DHT22;66872;63.142;14.482;2024-01-10T11:30:34;15.80;28.80
16532;DHT22;66872;63.142;14.482;2024-01-10T11:33:21;15.80;28.90
16532;DHT22;66872;63.142;14.482;2024-01-10T11:38:31;15.80;28.80
16532;DHT22;66872;63.142;14.482;2024-01-10T11:40:57;15.80;28.90
16532;DHT22;66872;63.142;14.482;2024-01-10T11:43:23;15.80;28.80
16532;DHT22;66872;63.142;14.482;2024-01-10T11:45:54;15.80;28.80
16532;DHT22;66872;63.142;14.482;2024-01-10T11:48:31;15.80;28.80
16532;DHT22;66872;63.142;14.482;2024-01-10T11:50:58;15.80;28.80
16532;DHT22;66872;63.142;14.482;2024-01-10T11:53:44;15.80;28.80
16532;DHT22;66872;63.142;14.482;2024-01-10T11:56:13;15.80;28.80
16532;DHT22;66872;63.142;14.482;2024-01-10T11:59:02;15.80;28.80
16532;DHT22;66872;63.142;14.482;2024-01-10T12:01:33;15.80;28.80
16532;DHT22;66872;63.142;14.482;2024-01-10T12:04:00;15.80;28.80
16532;DHT22;66872;63.142;14.482;2024-01-10T12:06:26;15.80;28.80
16532;DHT22;66872;63.142;14.482;2024-01-10T12:08:51;15.80;28.90
16532;DHT22;66872;63.142;14.482;2024-01-10T12:11:17;15.80;28.90
16532;DHT22;66872;63.142;14.482;2024-01-10T12:13:43;15.80;28.90
16532;DHT22;66872;63.142;14.482;2024-01-10T12:16:12;15.80;28.90
16532;DHT22;66872;63.142;14.482;2024-01-10T12:18:38;15.80;28.90
16532;DHT22;66872;63.142;14.482;2024-01-10T12:21:04;15.80;28.90
16532;DHT22;66872;63.142;14.482;2024-01-10T12:23:30;15.80;28.90
16532;DHT22;66872;63.142;14.482;2024-01-10T12:25:57;15.80;28.90
16532;DHT22;66872;63.142;14.482;2024-01-10T12:28:26;15.80;28.90
16532;DHT22;66872;63.142;14.482;2024-01-10T12:30:52;15.80;28.90
16532;DHT22;66872;63.142;14.482;2024-01-10T12:33:22;15.80;28.90
16532;DHT22;66872;63.142;14.482;2024-01-10T12:36:06;15.80;28.90
16532;DHT22;66872;63.142;14.482;2024-01-10T12:38:33;15.80;28.90
16532;DHT22;66872;63.142;14.482;2024-01-10T12:40:59;15.80;28.90
16532;DHT22;66872;63.142;14.482;2024-01-10T12:43:26;15.80;28.90
16532;DHT22;66872;63.142;14.482;2024-01-10T12:46:08;15.80;28.90
16532;DHT22;66872;63.142;14.482;2024-01-10T12:48:37;15.80;28.90
16532;DHT22;66872;63.142;14.482;2024-01-10T12:51:12;15.80;28.90
16532;DHT22;66872;63.142;14.482;2024-01-10T12:53:43;15.80;28.90
16532;DHT22;66872;63.142;14.482;2024-01-10T12:56:10;15.80;28.90
16532;DHT22;66872;63.142;14.482;2024-01-10T12:58:40;15.80;28.90
16532;DHT22;66872;63.142;14.482;2024-01-10T13:01:08;15.80;28.90
16532;DHT22;66872;63.142;14.482;2024-01-10T13:03:34;15.80;28.90
16532;DHT22;66872;63.142;14.482;2024-01-10T13:06:00;15.80;28.90
16532;DHT22;66872;63.142;14.482;2024-01-10T13:08:26;15.80;28.90
16532;DHT22;66872;63.142;14.482;2024-01-10T13:10:52;15.80;29.40
16532;DHT22;66872;63.142;14.482;2024-01-10T13:13:19;15.80;28.90
16532;DHT22;66872;63.142;14.482;2024-01-10T13:15:47;15.80;28.90
16532;DHT22;66872;63.142;14.482;2024-01-10T13:18:13;15.80;28.90
16532;DHT22;66872;63.142;14.482;2024-01-10T13:20:41;15.80;28.90
16532;DHT22;66872;63.142;14.482;2024-01-10T13:23:06;15.80;28.90
16532;DHT22;66872;63.142;14.482;2024-01-10T13:25:34;15.80;28.90
16532;DHT22;66872;63.142;14.482;2024-01-10T13:27:59;15.80;28.90
16532;DHT22;66872;63.142;14.482;2024-01-10T13:30:26;15.80;28.90
16532;DHT22;66872;63.142;14.482;2024-01-10T13:32:53;15.90;29.00
16532;DHT22;66872;63.142;14.482;2024-01-10T13:35:18;15.80;28.90
16532;DHT22;66872;63.142;14.482;2024-01-10T13:37:45;15.90;29.00
16532;DHT22;66872;63.142;14.482;2024-01-10T13:40:11;15.80;28.90
16532;DHT22;66872;63.142;14.482;2024-01-10T13:42:43;15.80;28.90
16532;DHT22;66872;63.142;14.482;2024-01-10T13:45:10;15.90;29.00
16532;DHT22;66872;63.142;14.482;2024-01-10T13:47:39;15.80;28.90
16532;DHT22;66872;63.142;14.482;2024-01-10T13:50:06;15.80;28.90
16532;DHT22;66872;63.142;14.482;2024-01-10T13:52:32;15.80;29.00
16532;DHT22;66872;63.142;14.482;2024-01-10T13:54:59;15.80;29.00
16532;DHT22;66872;63.142;14.482;2024-01-10T13:57:25;15.80;29.00
16532;DHT22;66872;63.142;14.482;2024-01-10T13:59:50;15.80;29.00
16532;DHT22;66872;63.142;14.482;2024-01-10T14:02:16;15.90;29.00
16532;DHT22;66872;63.142;14.482;2024-01-10T14:04:44;15.80;28.90
16532;DHT22;66872;63.142;14.482;2024-01-10T14:07:10;15.80;29.00
16532;DHT22;66872;63.142;14.482;2024-01-10T14:09:36;15.80;29.00
16532;DHT22;66872;63.142;14.482;2024-01-10T14:12:02;15.80;29.00
16532;DHT22;66872;63.142;14.482;2024-01-10T14:14:28;15.80;29.00
16532;DHT22;66872;63.142;14.482;2024-01-10T14:16:53;15.80;29.00
16532;DHT22;66872;63.142;14.482;2024-01-10T14:19:19;15.80;29.00
16532;DHT22;66872;63.142;14.482;2024-01-10T14:21:45;15.80;29.00
16532;DHT22;66872;63.142;14.482;2024-01-10T14:24:12;15.90;29.10
16532;DHT22;66872;63.142;14.482;2024-01-10T14:26:37;15.90;29.00
16532;DHT22;66872;63.142;14.482;2024-01-10T14:29:03;15.90;29.00
16532;DHT22;66872;63.142;14.482;2024-01-10T14:31:29;15.90;29.00
16532;DHT22;66872;63.142;14.482;2024-01-10T14:33:54;15.90;29.00
16532;DHT22;66872;63.142;14.482;2024-01-10T14:36:20;15.90;29.00
16532;DHT22;66872;63.142;14.482;2024-01-10T14:38:46;15.80;29.00
16532;DHT22;66872;63.142;14.482;2024-01-10T14:41:12;15.80;29.00
16532;DHT22;66872;63.142;14.482;2024-01-10T14:43:37;15.90;29.10
16532;DHT22;66872;63.142;14.482;2024-01-10T14:46:04;15.90;29.10
16532;DHT22;66872;63.142;14.482;2024-01-10T14:48:33;15.80;29.00
16532;DHT22;66872;63.142;14.482;2024-01-10T14:50:59;15.90;29.10
16532;DHT22;66872;63.142;14.482;2024-01-10T14:53:30;15.90;29.10
16532;DHT22;66872;63.142;14.482;2024-01-10T14:55:55;15.90;29.10
16532;DHT22;66872;63.142;14.482;2024-01-10T14:58:21;15.80;29.10
16532;DHT22;66872;63.142;14.482;2024-01-10T15:00:47;15.80;29.10
16532;DHT22;66872;63.142;14.482;2024-01-10T15:03:13;15.80;29.10
16532;DHT22;66872;63.142;14.482;2024-01-10T15:05:41;15.90;29.10
16532;DHT22;66872;63.142;14.482;2024-01-10T15:08:08;15.80;29.10
16532;DHT22;66872;63.142;14.482;2024-01-10T15:10:35;15.90;29.10
16532;DHT22;66872;63.142;14.482;2024-01-10T15:13:01;15.90;29.10
16532;DHT22;66872;63.142;14.482;2024-01-10T15:15:27;15.80;29.10
16532;DHT22;66872;63.142;14.482;2024-01-10T15:17:52;15.90;29.10
16532;DHT22;66872;63.142;14.482;2024-01-10T15:20:18;15.90;29.10
16532;DHT22;66872;63.142;14.482;2024-01-10T15:22:44;15.90;29.10
16532;DHT22;66872;63.142;14.482;2024-01-10T15:25:10;15.80;29.10